Time;durP1;ratioP1;P1;durP2;ratioP2;P2;SDS_P1;SDS_P2;PMS_P1;PMS_P2;Temp;Humidity;BMP_temperature;BMP_pressure;BME280_temperature;BME280_humidity;BME280_pressure;Samples;Min_cycle;Max_cycle;Signal;HPM_P1;HPM_P2
2022/01/01 00:00:51;;;;;;;12.33;7.33;;;;;;;10.48;85.51;96986.47;5096464;28;20949;-34
2022/01/01 00:03:20;;;;;;;11.93;7.27;;;;;;;10.46;85.70;96985.88;5096457;28;20957;-37
2022/01/01 00:05:47;;;;;;;10.87;8.00;;;;;;;10.45;85.39;96986.91;5096037;28;20441;-37
2022/01/01 00:08:16;;;;;;;9.57;7.90;;;;;;;10.41;85.84;96985.75;5095970;28;20482;-36
2022/01/01 00:10:43;;;;;;;14.20;8.90;;;;;;;10.38;85.74;96986.22;5095954;28;20435;-37
2022/01/01 00:13:10;;;;;;;16.50;8.80;;;;;;;10.37;86.00;96989.91;5095942;28;20442;-37
2022/01/01 00:15:37;;;;;;;13.23;8.70;;;;;;;10.33;85.87;96984.25;5095875;28;20442;-37
2022/01/01 00:18:05;;;;;;;9.47;7.20;;;;;;;10.28;86.16;96980.63;5096222;28;20844;-37
2022/01/01 00:20:33;;;;;;;11.10;7.67;;;;;;;10.20;86.67;96984.44;5095821;28;20825;-37
2022/01/01 00:23:00;;;;;;;9.83;8.03;;;;;;;10.13;86.53;96995.16;5095987;28;20988;-36
2022/01/01 00:25:28;;;;;;;10.50;7.83;;;;;;;10.10;86.88;96985.00;5095737;28;20446;-37
2022/01/01 00:27:55;;;;;;;9.20;6.90;;;;;;;10.08;87.28;96976.47;5095572;28;20531;-37
2022/01/01 00:30:22;;;;;;;15.53;8.27;;;;;;;10.05;87.51;96971.63;5095967;28;20442;-37
2022/01/01 00:32:50;;;;;;;8.07;6.27;;;;;;;10.04;87.82;96986.72;5095569;28;20450;-37
2022/01/01 00:35:17;;;;;;;7.70;6.17;;;;;;;10.03;88.17;96971.03;5095821;28;20439;-38
2022/01/01 00:37:45;;;;;;;8.67;6.37;;;;;;;9.98;88.27;96965.59;5095455;28;20447;-37
2022/01/01 00:40:13;;;;;;;12.43;7.20;;;;;;;9.94;88.27;96959.94;5095743;28;20439;-37
2022/01/01 00:42:40;;;;;;;12.33;6.70;;;;;;;9.95;88.56;96964.22;5095111;28;20439;-37
2022/01/01 00:45:08;;;;;;;10.40;5.77;;;;;;;9.93;88.36;96963.63;5095647;28;20442;-37
2022/01/01 00:47:35;;;;;;;15.90;6.87;;;;;;;9.93;88.55;96960.16;5095215;28;20937;-36
2022/01/01 00:50:03;;;;;;;10.87;6.53;;;;;;;9.88;88.65;96960.84;5095251;28;20443;-36
2022/01/01 00:52:30;;;;;;;18.47;8.70;;;;;;;9.84;88.76;96957.84;5095165;28;20443;-37
2022/01/01 00:54:59;;;;;;;7.17;4.77;;;;;;;9.83;89.13;96953.59;5096304;28;20457;-37
2022/01/01 00:57:27;;;;;;;10.20;5.90;;;;;;;9.84;89.34;96960.50;5095086;28;20443;-37
2022/01/01 00:59:54;;;;;;;13.53;7.03;;;;;;;9.86;89.10;96949.66;5095044;28;20450;-38
2022/01/01 01:02:21;;;;;;;10.33;6.33;;;;;;;9.88;89.36;96954.75;5095297;28;20794;-36
2022/01/01 01:04:48;;;;;;;9.97;6.20;;;;;;;9.88;88.63;96960.84;5094934;28;20435;-37
2022/01/01 01:07:15;;;;;;;15.73;7.67;;;;;;;9.86;89.13;96956.81;5095242;28;20443;-36
2022/01/01 01:09:43;;;;;;;16.10;7.93;;;;;;;9.83;89.16;96956.25;5094769;28;20478;-37
2022/01/01 01:12:11;;;;;;;16.40;8.93;;;;;;;9.82;88.90;96957.25;5095144;28;20447;-37
2022/01/01 01:14:41;;;;;;;9.60;5.80;;;;;;;9.81;89.14;96960.97;5094804;28;20450;-36
2022/01/01 01:17:10;;;;;;;7.50;4.57;;;;;;;9.82;89.50;96957.25;5094930;28;20439;-37
2022/01/01 01:19:37;;;;;;;5.97;4.27;;;;;;;9.81;89.34;96952.22;5094652;28;20493;-37
2022/01/01 01:22:05;;;;;;;4.77;4.27;;;;;;;9.80;89.51;96953.22;5094624;28;20435;-36
2022/01/01 01:24:33;;;;;;;4.07;3.77;;;;;;;9.80;89.26;96953.22;5094555;28;20450;-36
2022/01/01 01:27:02;;;;;;;6.43;5.40;;;;;;;9.77;89.01;96945.75;5094864;28;20835;-35
2022/01/01 01:29:33;;;;;;;5.50;4.30;;;;;;;9.76;89.25;96947.56;5094427;28;20490;-34
2022/01/01 01:32:00;;;;;;;4.47;4.07;;;;;;;9.73;89.14;96937.41;5094370;28;20799;-34
2022/01/01 01:34:27;;;;;;;6.27;5.00;;;;;;;9.71;89.35;96939.47;5094383;28;20446;-36
2022/01/01 01:36:54;;;;;;;4.83;3.50;;;;;;;9.71;89.26;96944.78;5094645;28;20801;-36
2022/01/01 01:39:21;;;;;;;5.10;4.03;;;;;;;9.69;88.98;96944.22;5094314;28;20443;-36
2022/01/01 01:41:51;;;;;;;4.67;3.20;;;;;;;9.69;88.83;96941.56;5094612;28;20914;-34
2022/01/01 01:44:31;;;;;;;9.20;5.00;;;;;;;9.64;88.86;96934.28;5094123;28;20854;-35
2022/01/01 01:47:03;;;;;;;7.80;6.20;;;;;;;9.69;88.68;96930.94;5094504;28;20439;-35
2022/01/01 01:49:30;;;;;;;9.90;5.83;;;;;;;9.56;89.00;96915.25;5094369;28;20475;-35
2022/01/01 01:51:58;;;;;;;6.03;5.07;;;;;;;9.53;88.89;96921.81;5094313;28;20439;-35
2022/01/01 01:54:26;;;;;;;7.37;5.20;;;;;;;9.63;89.07;96934.50;5093963;28;20516;-36
2022/01/01 01:56:54;;;;;;;11.13;7.07;;;;;;;9.65;88.93;96940.38;5093968;28;20918;-36
2022/01/01 01:59:22;;;;;;;34.57;17.70;;;;;;;9.66;89.37;96928.75;5093826;28;20441;-37
2022/01/01 02:01:51;;;;;;;26.27;12.17;;;;;;;9.64;88.52;96917.59;5094190;28;20439;-35
2022/01/01 02:04:20;;;;;;;11.60;7.33;;;;;;;9.67;88.56;96917.13;5093461;28;20453;-36
2022/01/01 02:06:47;;;;;;;9.43;7.03;;;;;;;9.66;88.73;96917.34;5093787;28;20439;-36
2022/01/01 02:09:14;;;;;;;13.67;6.50;;;;;;;9.61;88.67;96912.72;5094075;28;20487;-37
2022/01/01 02:11:42;;;;;;;12.97;6.50;;;;;;;9.59;88.79;96914.78;5093695;28;20435;-36
2022/01/01 02:14:24;;;;;;;8.83;6.30;;;;;;;9.56;89.51;96909.94;5093775;28;20479;-34
2022/01/01 02:19:44;;;;;;;5.60;3.67;;;;;;;9.49;88.71;96902.09;5089938;28;20438;-36
2022/01/01 02:22:13;;;;;;;8.90;4.87;;;;;;;9.48;88.66;96907.63;5093995;28;20906;-35
2022/01/01 02:24:41;;;;;;;7.43;5.23;;;;;;;9.46;89.21;96913.13;5093496;28;20439;-35
2022/01/01 02:27:08;;;;;;;10.63;6.17;;;;;;;9.46;89.19;96914.97;5093876;28;20443;-36
2022/01/01 02:29:36;;;;;;;9.17;6.60;;;;;;;9.43;89.55;96906.44;5093799;28;20490;-35
2022/01/01 02:32:04;;;;;;;5.57;4.67;;;;;;;9.43;89.08;96903.78;5093439;28;20933;-34
2022/01/01 02:34:31;;;;;;;9.40;5.83;;;;;;;9.43;89.70;96905.66;5093657;28;20443;-35
2022/01/01 02:36:58;;;;;;;8.63;4.60;;;;;;;9.41;89.56;96892.63;5093770;28;20542;-35
2022/01/01 02:39:27;;;;;;;4.60;3.97;;;;;;;9.41;89.76;96903.22;5093426;28;20922;-34
2022/01/01 02:41:55;;;;;;;5.90;4.57;;;;;;;9.32;89.60;96887.88;5093402;28;20450;-36
2022/01/01 02:44:23;;;;;;;7.10;5.37;;;;;;;9.36;90.12;96897.78;5093255;28;20839;-37
2022/01/01 02:46:52;;;;;;;6.63;5.40;;;;;;;9.32;90.43;96898.47;5093371;28;20443;-37
2022/01/01 02:49:19;;;;;;;7.00;5.73;;;;;;;9.26;90.79;96894.88;5093477;28;20492;-38
2022/01/01 02:51:47;;;;;;;13.23;6.33;;;;;;;9.25;90.52;96887.97;5093324;28;20945;-37
2022/01/01 02:54:14;;;;;;;9.30;5.30;;;;;;;9.22;91.06;96888.41;5093657;28;20919;-37
2022/01/01 02:56:43;;;;;;;10.30;5.93;;;;;;;9.22;91.42;96891.06;5093309;28;20445;-38
2022/01/01 02:59:10;;;;;;;7.20;5.20;;;;;;;9.22;91.18;96883.91;5093233;28;20446;-37
2022/01/01 03:01:37;;;;;;;9.40;4.40;;;;;;;9.24;91.31;96886.34;5093548;28;20443;-37
2022/01/01 03:04:05;;;;;;;22.37;10.13;;;;;;;9.23;91.02;96890.03;5093170;28;20935;-37
2022/01/01 03:06:32;;;;;;;18.00;9.77;;;;;;;9.20;91.31;96869.28;5093129;28;20831;-38
2022/01/01 03:09:00;;;;;;;98.23;39.13;;;;;;;9.23;92.16;96882.09;5093435;28;20839;-38
2022/01/01 03:11:27;;;;;;;51.20;21.70;;;;;;;9.23;91.80;96874.16;5093082;28;20439;-38
2022/01/01 03:13:55;;;;;;;37.93;17.60;;;;;;;9.25;91.85;96881.84;5093375;28;20443;-37
2022/01/01 03:16:23;;;;;;;30.57;14.90;;;;;;;9.23;91.91;96876.78;5093763;28;20913;-37
2022/01/01 03:18:50;;;;;;;17.27;10.60;;;;;;;9.23;92.28;96874.94;5097042;28;20441;-37
2022/01/01 03:21:17;;;;;;;23.30;10.77;;;;;;;9.23;92.30;96879.44;5097773;28;20451;-37
2022/01/01 03:23:45;;;;;;;17.30;9.37;;;;;;;9.21;92.26;96866.41;5096894;28;20450;-36
2022/01/01 03:26:12;;;;;;;17.03;10.40;;;;;;;9.26;92.46;96872.88;5078990;28;20442;-37
2022/01/01 03:28:39;;;;;;;17.40;10.43;;;;;;;9.26;92.44;96875.53;5097034;28;20505;-37
2022/01/01 03:31:08;;;;;;;27.03;14.03;;;;;;;9.25;92.16;96876.53;5096820;28;20438;-37
2022/01/01 03:33:35;;;;;;;23.40;11.40;;;;;;;9.23;92.65;96869.66;5097100;28;20439;-37
2022/01/01 03:36:03;;;;;;;19.33;9.13;;;;;;;9.25;92.51;96871.25;5096986;28;20835;-37
2022/01/01 03:38:30;;;;;;;14.93;8.00;;;;;;;9.26;91.85;96873.69;5096661;28;20438;-37
2022/01/01 03:40:57;;;;;;;11.63;7.43;;;;;;;9.22;91.67;96867.22;5096844;28;20470;-37
2022/01/01 03:43:24;;;;;;;11.40;6.27;;;;;;;9.34;91.33;96869.91;5096426;28;20482;-37
2022/01/01 03:45:52;;;;;;;7.80;6.77;;;;;;;9.37;91.08;96878.19;5096820;28;20435;-38
2022/01/01 03:48:20;;;;;;;6.07;4.47;;;;;;;9.37;90.90;96874.75;5096424;28;20934;-37
2022/01/01 03:50:48;;;;;;;5.03;3.23;;;;;;;9.37;90.44;96870.25;5096365;28;20831;-37
2022/01/01 03:53:16;;;;;;;4.20;3.80;;;;;;;9.37;91.02;96877.41;5096361;28;20447;-37
2022/01/01 03:55:43;;;;;;;2.90;2.60;;;;;;;9.36;91.17;96871.28;5096619;28;20508;-38
2022/01/01 03:58:10;;;;;;;4.10;3.00;;;;;;;9.37;90.48;96864.94;5096584;28;20501;-37
2022/01/01 04:00:39;;;;;;;8.13;7.30;;;;;;;9.41;89.98;96874.06;5096285;28;20457;-37
2022/01/01 04:03:11;;;;;;;13.67;4.70;;;;;;;9.41;90.68;96870.63;5096186;28;20453;-37
2022/01/01 04:05:42;;;;;;;8.87;4.10;;;;;;;9.44;90.54;96867.50;5096404;28;20431;-37
2022/01/01 04:08:10;;;;;;;9.50;4.47;;;;;;;9.46;90.26;96877.88;5096133;28;20829;-37
2022/01/01 04:10:38;;;;;;;6.47;3.43;;;;;;;9.45;90.88;96876.28;5096264;28;20487;-37
2022/01/01 04:13:07;;;;;;;10.50;4.10;;;;;;;9.43;90.71;96869.34;5095913;28;20452;-37
2022/01/01 04:15:36;;;;;;;13.07;4.57;;;;;;;9.47;90.92;96876.88;5096171;28;20915;-36
2022/01/01 04:18:09;;;;;;;10.97;5.00;;;;;;;9.45;90.68;96876.28;5096102;28;20443;-35
2022/01/01 04:20:36;;;;;;;14.63;5.97;;;;;;;9.48;90.91;96870.50;5096128;28;20424;-35
2022/01/01 04:23:09;;;;;;;13.73;5.00;;;;;;;9.47;91.48;96872.38;5096112;28;20462;-37
2022/01/01 04:25:37;;;;;;;10.60;5.37;;;;;;;9.40;91.33;96875.13;5096118;28;20821;-36
2022/01/01 04:28:05;;;;;;;10.30;5.30;;;;;;;9.41;91.58;96875.91;5095635;28;20468;-35
2022/01/01 04:30:32;;;;;;;11.87;6.33;;;;;;;9.42;91.85;96894.25;5095660;28;20490;-35
2022/01/01 04:33:00;;;;;;;18.20;9.10;;;;;;;9.27;92.15;96862.06;5096745;28;20458;-34
2022/01/01 04:35:27;;;;;;;15.33;8.40;;;;;;;9.45;92.44;96884.22;5095843;28;20443;-35
2022/01/01 04:37:55;;;;;;;16.80;8.90;;;;;;;9.45;92.20;96894.81;5095453;28;20446;-35
2022/01/01 04:40:24;;;;;;;23.30;12.83;;;;;;;9.46;92.12;96897.22;5095773;28;20466;-34
2022/01/01 04:42:52;;;;;;;35.97;19.10;;;;;;;9.42;92.20;96894.25;5095433;28;20823;-36
2022/01/01 04:45:19;;;;;;;39.57;18.27;;;;;;;9.38;92.02;96898.38;5095421;28;20434;-35
2022/01/01 04:47:46;;;;;;;34.43;14.87;;;;;;;9.39;92.32;96893.88;5095649;28;20922;-35
2022/01/01 04:50:13;;;;;;;25.43;15.60;;;;;;;9.37;92.29;96902.03;5095469;28;20490;-35
2022/01/01 04:52:42;;;;;;;27.73;14.90;;;;;;;9.35;92.53;96898.81;5095565;28;20438;-34
2022/01/01 04:55:10;;;;;;;29.83;15.90;;;;;;;9.34;91.85;96899.06;5095181;28;20483;-34
2022/01/01 04:57:39;;;;;;;19.70;10.80;;;;;;;9.30;90.71;96890.75;5095112;28;20445;-35
2022/01/01 05:00:07;;;;;;;22.53;11.17;;;;;;;9.32;91.08;96906.41;5095374;28;20435;-37
2022/01/01 05:02:35;;;;;;;16.80;9.07;;;;;;;9.33;90.54;96902.72;5095054;28;20439;-36
2022/01/01 05:05:02;;;;;;;16.60;8.07;;;;;;;9.36;90.40;96916.34;5095237;28;20450;-35
2022/01/01 05:07:29;;;;;;;34.70;16.90;;;;;;;9.39;89.98;96921.19;5094905;28;20443;-36
2022/01/01 05:09:56;;;;;;;23.97;12.93;;;;;;;9.39;90.09;96923.81;5094834;28;20491;-36
2022/01/01 05:12:23;;;;;;;48.30;23.40;;;;;;;9.40;90.33;96922.81;5094859;28;20435;-36
2022/01/01 05:14:52;;;;;;;44.33;20.97;;;;;;;9.41;88.85;96931.56;5094681;28;20458;-35
2022/01/01 05:17:19;;;;;;;13.67;9.20;;;;;;;9.42;89.32;96925.22;5095111;28;20823;-36
2022/01/01 05:19:47;;;;;;;12.80;9.13;;;;;;;9.42;88.98;96926.03;5094735;28;20804;-35
2022/01/01 05:22:14;;;;;;;82.50;32.80;;;;;;;9.34;89.83;96918.41;5094961;28;20443;-34
2022/01/01 05:24:41;;;;;;;34.27;15.77;;;;;;;9.42;90.18;96930.50;5094625;28;20811;-36
2022/01/01 05:27:08;;;;;;;12.63;7.57;;;;;;;9.44;90.00;96928.44;5094634;28;20928;-37
2022/01/01 05:29:36;;;;;;;26.73;15.40;;;;;;;9.45;90.06;96923.97;5094833;28;20514;-37
2022/01/01 05:32:05;;;;;;;23.97;13.07;;;;;;;9.48;89.67;96919.00;5094733;28;20443;-38
2022/01/01 05:34:32;;;;;;;27.63;9.97;;;;;;;9.55;89.63;96918.91;5094733;28;20435;-37
2022/01/01 05:36:59;;;;;;;34.53;14.07;;;;;;;9.60;89.45;96929.66;5094730;28;20438;-36
2022/01/01 05:39:26;;;;;;;11.67;7.60;;;;;;;9.70;89.35;96926.44;5093599;28;20930;-37
2022/01/01 05:41:54;;;;;;;6.40;4.40;;;;;;;9.76;89.03;96910.44;5094294;28;20443;-37
2022/01/01 05:44:22;;;;;;;14.33;7.67;;;;;;;9.81;88.40;96923.84;5094010;28;20466;-37
2022/01/01 05:46:52;;;;;;;26.20;10.57;;;;;;;9.86;88.53;96912.53;5094212;28;20485;-37
2022/01/01 05:49:21;;;;;;;9.73;6.63;;;;;;;9.93;88.32;96912.44;5094187;28;20466;-37
2022/01/01 05:51:48;;;;;;;13.63;7.57;;;;;;;10.01;87.64;96912.91;5094130;28;20450;-37
2022/01/01 05:54:15;;;;;;;9.57;5.63;;;;;;;10.10;86.94;96917.88;5094032;28;20476;-37
2022/01/01 05:56:43;;;;;;;37.30;14.53;;;;;;;10.16;86.98;96917.75;5094294;28;20446;-37
2022/01/01 05:59:10;;;;;;;18.27;10.57;;;;;;;10.17;86.59;96908.75;5093985;28;20442;-37
2022/01/01 06:01:37;;;;;;;21.87;11.20;;;;;;;10.30;86.63;96917.56;5093920;28;20447;-37
2022/01/01 06:04:05;;;;;;;45.73;21.17;;;;;;;10.32;85.92;96907.50;5094060;28;20780;-38
2022/01/01 06:06:34;;;;;;;69.30;36.10;;;;;;;10.35;86.01;96907.06;5093935;28;20523;-38
2022/01/01 06:09:01;;;;;;;22.43;15.50;;;;;;;10.20;86.14;96889.72;5093849;28;20442;-38
2022/01/01 06:11:28;;;;;;;26.87;24.20;;;;;;;10.33;85.96;96903.84;5093739;28;20501;-37
2022/01/01 06:13:55;;;;;;;51.87;47.10;;;;;;;10.38;86.11;96911.91;5093778;28;20919;-38
2022/01/01 06:16:22;;;;;;;14.20;12.73;;;;;;;10.41;85.58;96906.13;5093707;28;20512;-38
2022/01/01 06:18:50;;;;;;;5.70;4.13;;;;;;;10.45;85.82;96904.63;5094036;28;20440;-38
2022/01/01 06:21:17;;;;;;;7.80;4.97;;;;;;;10.48;85.26;96901.50;5093235;28;20447;-39
2022/01/01 06:23:46;;;;;;;12.40;5.07;;;;;;;10.52;85.28;96905.31;5092885;28;20531;-37
2022/01/01 06:26:15;;;;;;;44.17;24.03;;;;;;;10.54;85.19;96913.84;5085519;28;20445;-37
2022/01/01 06:28:42;;;;;;;26.77;16.60;;;;;;;10.57;85.10;96912.59;5072585;28;20451;-40
2022/01/01 06:31:09;;;;;;;45.57;25.30;;;;;;;10.61;84.77;96909.22;5072289;28;20484;-38
2022/01/01 06:33:36;;;;;;;157.13;74.47;;;;;;;10.66;84.06;96917.28;5072444;28;20447;-37
2022/01/01 06:36:04;;;;;;;122.87;51.03;;;;;;;10.71;84.57;96915.78;5072242;28;20924;-38
2022/01/01 06:38:31;;;;;;;268.63;123.97;;;;;;;10.71;83.89;96921.09;5086985;28;20449;-37
2022/01/01 06:40:59;;;;;;;22.30;12.43;;;;;;;10.76;84.08;96914.03;5093514;28;20442;-38
2022/01/01 06:43:27;;;;;;;11.73;7.87;;;;;;;10.80;83.45;96919.72;5093210;28;20520;-37
2022/01/01 06:45:54;;;;;;;20.40;18.13;;;;;;;10.88;83.30;96921.16;5093343;28;20447;-37
2022/01/01 06:48:21;;;;;;;33.47;21.13;;;;;;;10.94;82.52;96917.59;5093702;28;20454;-37
2022/01/01 06:50:48;;;;;;;17.00;11.37;;;;;;;10.95;82.49;96925.31;5094746;28;20482;-37
2022/01/01 06:53:15;;;;;;;17.23;10.40;;;;;;;10.99;82.78;96918.50;5097492;28;20930;-37
2022/01/01 06:55:42;;;;;;;10.90;8.33;;;;;;;11.05;82.45;96901.59;5097508;28;20439;-38
2022/01/01 06:58:11;;;;;;;18.87;16.20;;;;;;;11.11;81.97;96894.53;5098255;28;20439;-38
2022/01/01 07:00:39;;;;;;;179.20;96.07;;;;;;;11.18;82.04;96905.03;5097698;28;20438;-38
2022/01/01 07:03:07;;;;;;;21.73;16.60;;;;;;;11.28;81.47;96921.16;5097314;28;20524;-38
2022/01/01 07:05:34;;;;;;;48.83;30.73;;;;;;;11.35;81.24;96919.16;5097562;28;20443;-37
2022/01/01 07:08:02;;;;;;;15.90;9.80;;;;;;;11.38;81.08;96921.38;5097537;28;20500;-38
2022/01/01 07:10:29;;;;;;;11.87;8.17;;;;;;;11.40;80.75;96924.59;5097089;28;20496;-37
2022/01/01 07:12:56;;;;;;;10.13;6.70;;;;;;;11.50;80.48;96934.59;5097099;28;20442;-36
2022/01/01 07:15:25;;;;;;;20.70;11.70;;;;;;;11.56;80.36;96936.28;5097130;28;20442;-38
2022/01/01 07:17:52;;;;;;;77.23;36.63;;;;;;;11.62;80.11;96948.63;5097055;28;20443;-36
2022/01/01 07:20:20;;;;;;;142.10;77.83;;;;;;;11.68;79.82;96944.22;5097386;28;20443;-35
2022/01/01 07:22:47;;;;;;;28.13;17.90;;;;;;;11.73;79.29;96949.63;5097025;28;20778;-34
2022/01/01 07:25:16;;;;;;;15.70;11.27;;;;;;;11.80;79.11;96957.44;5097109;28;20442;-34
2022/01/01 07:27:44;;;;;;;90.27;47.20;;;;;;;11.79;78.82;96955.84;5097105;28;20443;-35
2022/01/01 07:30:12;;;;;;;10.50;6.87;;;;;;;11.84;78.14;96956.72;5097050;28;20490;-35
2022/01/01 07:32:42;;;;;;;61.33;31.77;;;;;;;11.96;76.84;96958.53;5096267;28;20442;-34
2022/01/01 07:35:10;;;;;;;51.07;30.93;;;;;;;12.01;77.54;96966.63;5096600;28;20447;-36
2022/01/01 07:37:37;;;;;;;55.93;30.10;;;;;;;12.08;77.21;96956.63;5096949;28;20461;-34
2022/01/01 07:40:07;;;;;;;30.30;17.73;;;;;;;12.13;76.81;96958.56;5096341;28;20476;-35
2022/01/01 07:42:50;;;;;;;45.83;27.53;;;;;;;12.16;76.74;96964.22;5096486;28;20780;-38
2022/01/01 07:45:17;;;;;;;61.20;34.77;;;;;;;12.00;76.65;96939.22;5056577;28;20433;-37
2022/01/01 07:47:46;;;;;;;13.20;8.60;;;;;;;12.19;76.84;96960.25;5057365;28;20440;-34
2022/01/01 07:50:13;;;;;;;89.03;50.50;;;;;;;12.18;76.22;96962.09;5056076;28;20488;-37
2022/01/01 07:52:42;;;;;;;32.10;18.33;;;;;;;12.05;76.58;96946.47;5045380;28;20450;-37
2022/01/01 07:55:10;;;;;;;46.67;27.50;;;;;;;12.19;76.20;96963.72;5035932;28;20528;-35
2022/01/01 07:57:37;;;;;;;45.33;27.17;;;;;;;12.20;76.47;96978.66;5044074;28;20922;-38
2022/01/01 08:00:07;;;;;;;25.10;15.40;;;;;;;12.23;75.96;96969.38;5038500;28;20556;-35
2022/01/01 08:02:40;;;;;;;25.30;15.37;;;;;;;12.22;75.89;96973.88;5035176;28;20922;-34
2022/01/01 08:05:10;;;;;;;27.83;15.30;;;;;;;12.21;75.80;96971.47;5035934;28;20434;-35
2022/01/01 08:07:37;;;;;;;37.87;22.97;;;;;;;12.20;76.85;96970.66;5042648;28;20444;-37
2022/01/01 08:10:05;;;;;;;130.80;77.10;;;;;;;12.07;75.79;96949.69;5035861;28;20445;-34
2022/01/01 08:12:32;;;;;;;24.67;14.03;;;;;;;12.17;75.80;96973.00;5035933;28;20442;-36
2022/01/01 08:14:59;;;;;;;24.00;15.20;;;;;;;12.18;76.23;96966.63;5035854;28;20442;-38
2022/01/01 08:17:27;;;;;;;18.80;12.40;;;;;;;12.18;76.36;96964.78;5035520;28;20816;-38
2022/01/01 08:19:54;;;;;;;32.93;20.27;;;;;;;12.23;76.10;96975.50;5036005;28;20824;-38
2022/01/01 08:22:22;;;;;;;90.50;57.10;;;;;;;12.28;75.81;96967.59;5050186;28;20451;-37
2022/01/01 08:24:49;;;;;;;117.03;58.20;;;;;;;12.28;75.60;96978.25;5055531;28;20436;-38
2022/01/01 08:27:17;;;;;;;82.20;44.03;;;;;;;12.32;74.71;96972.44;5055548;28;20436;-37
2022/01/01 08:29:44;;;;;;;13.63;10.00;;;;;;;12.40;73.64;96972.81;5055461;28;20452;-37
2022/01/01 08:32:12;;;;;;;21.03;14.50;;;;;;;12.44;74.31;96967.81;5055375;28;20852;-36
2022/01/01 08:34:39;;;;;;;28.67;17.50;;;;;;;12.47;74.93;96962.00;5055460;28;20958;-37
2022/01/01 08:37:06;;;;;;;17.30;9.70;;;;;;;12.56;74.80;96967.72;5055547;28;20447;-38
2022/01/01 08:39:35;;;;;;;47.10;28.93;;;;;;;12.62;74.23;96972.88;5055297;28;20436;-37
2022/01/01 08:42:02;;;;;;;45.27;28.53;;;;;;;12.65;73.69;96961.75;5055188;28;20498;-38
2022/01/01 08:44:30;;;;;;;19.60;13.87;;;;;;;12.75;74.22;96971.72;5085744;28;20482;-38
2022/01/01 08:46:57;;;;;;;59.77;30.60;;;;;;;12.86;73.38;96983.31;5095392;28;20450;-35
2022/01/01 08:49:24;;;;;;;56.90;34.43;;;;;;;13.05;73.36;96960.66;5095224;28;20445;-37
2022/01/01 08:51:55;;;;;;;41.30;21.17;;;;;;;13.21;72.04;96964.31;5080175;28;20908;-37
2022/01/01 08:54:22;;;;;;;15.73;10.90;;;;;;;13.31;72.01;96969.00;5076161;28;20875;-37
2022/01/01 08:56:51;;;;;;;24.67;17.20;;;;;;;13.36;71.48;96962.91;5073217;28;20447;-37
2022/01/01 08:59:19;;;;;;;24.77;16.27;;;;;;;13.40;70.82;96978.19;5073438;28;20459;-37
2022/01/01 09:01:46;;;;;;;35.57;22.87;;;;;;;13.41;70.51;96963.78;5073083;28;20446;-37
2022/01/01 09:04:13;;;;;;;34.87;21.07;;;;;;;13.41;69.96;96963.78;5074964;28;20444;-37
2022/01/01 09:06:41;;;;;;;13.53;8.50;;;;;;;13.23;69.69;96942.75;5074662;28;20440;-38
2022/01/01 09:09:08;;;;;;;20.57;12.80;;;;;;;13.36;69.63;96963.72;5074619;28;20446;-37
2022/01/01 09:11:35;;;;;;;37.43;17.50;;;;;;;13.40;70.82;96951.50;5074885;28;20487;-37
2022/01/01 09:14:04;;;;;;;36.47;22.30;;;;;;;13.45;70.30;96948.88;5073769;28;20451;-37
2022/01/01 09:16:32;;;;;;;6.03;5.20;;;;;;;13.48;69.59;96955.56;5074849;28;20451;-37
2022/01/01 09:18:59;;;;;;;15.53;10.27;;;;;;;13.56;69.32;96960.47;5074751;28;20459;-37
2022/01/01 09:21:27;;;;;;;8.43;6.20;;;;;;;13.60;69.92;96960.78;5074469;28;20435;-38
2022/01/01 09:23:54;;;;;;;6.60;4.67;;;;;;;13.62;68.54;96964.00;5074348;28;20448;-37
2022/01/01 09:26:22;;;;;;;21.90;11.67;;;;;;;13.73;68.69;96965.72;5074338;28;20448;-36
2022/01/01 09:28:49;;;;;;;91.00;46.70;;;;;;;13.83;68.94;96965.00;5074583;28;20455;-37
2022/01/01 09:31:18;;;;;;;17.10;11.53;;;;;;;13.92;67.92;96956.28;5074508;28;20813;-37
2022/01/01 09:33:45;;;;;;;33.13;17.53;;;;;;;14.08;68.62;96957.22;5074177;28;20444;-37
2022/01/01 09:36:14;;;;;;;34.33;18.33;;;;;;;14.13;67.64;96959.09;5074150;28;20468;-36
2022/01/01 09:38:42;;;;;;;5.23;3.93;;;;;;;14.15;67.33;96962.34;5074115;28;20440;-36
2022/01/01 09:41:10;;;;;;;17.47;9.63;;;;;;;14.12;67.34;96941.50;5074054;28;20479;-37
2022/01/01 09:43:38;;;;;;;92.60;52.97;;;;;;;14.08;67.49;96925.16;5073971;28;21006;-35
2022/01/01 09:46:06;;;;;;;34.07;19.47;;;;;;;14.27;67.42;96944.28;5074253;28;20444;-35
2022/01/01 09:48:34;;;;;;;20.50;13.80;;;;;;;14.33;67.21;96955.81;5073911;28;20538;-35
2022/01/01 09:51:04;;;;;;;55.80;28.40;;;;;;;14.31;67.50;96947.25;5073725;28;21001;-35
2022/01/01 09:53:33;;;;;;;35.50;19.67;;;;;;;14.37;67.17;96937.38;5073768;28;20534;-35
2022/01/01 09:56:02;;;;;;;45.13;27.77;;;;;;;14.46;66.76;96930.53;5073824;28;20527;-35
2022/01/01 09:58:30;;;;;;;21.20;14.07;;;;;;;14.43;67.26;96928.34;5074018;28;20803;-35
2022/01/01 10:00:58;;;;;;;33.53;16.30;;;;;;;14.26;66.63;96929.31;5073655;28;20989;-35
2022/01/01 10:03:29;;;;;;;18.67;11.60;;;;;;;14.11;67.50;96919.34;5073626;28;20443;-37
2022/01/01 10:06:02;;;;;;;13.03;7.30;;;;;;;13.98;67.79;96924.28;5084039;28;20442;-37
2022/01/01 10:08:31;;;;;;;8.67;7.00;;;;;;;13.78;68.06;96928.38;5093858;28;21007;-37
2022/01/01 10:10:58;;;;;;;19.90;11.10;;;;;;;13.68;69.05;96936.28;5093567;28;20582;-37
2022/01/01 10:13:30;;;;;;;22.20;12.30;;;;;;;13.63;69.96;96950.41;5093759;28;20435;-37
2022/01/01 10:16:01;;;;;;;17.87;11.33;;;;;;;13.58;70.27;96925.53;5094063;28;20423;-37
2022/01/01 10:18:30;;;;;;;18.40;12.40;;;;;;;13.57;69.49;96935.38;5093655;28;20451;-37
2022/01/01 10:21:00;;;;;;;72.27;41.80;;;;;;;13.57;69.59;96939.94;5093590;28;20442;-33
2022/01/01 10:23:31;;;;;;;57.83;30.23;;;;;;;13.46;69.67;96918.47;5093610;28;20454;-36
2022/01/01 10:29:10;;;;;;;18.90;13.67;;;;;;;13.53;69.85;96934.31;5093719;28;20456;-34
2022/01/01 10:31:38;;;;;;;15.57;9.50;;;;;;;13.58;70.50;96933.56;5093679;28;20815;-33
2022/01/01 10:34:13;;;;;;;26.10;16.80;;;;;;;13.62;70.02;96932.00;5093780;28;20454;-33
2022/01/01 10:36:44;;;;;;;13.53;12.33;;;;;;;13.59;70.12;96943.94;5093669;28;20442;-35
2022/01/01 10:39:17;;;;;;;16.20;11.97;;;;;;;13.61;69.50;96931.16;5093427;28;20446;-34
2022/01/01 10:41:49;;;;;;;17.77;14.93;;;;;;;13.56;70.22;96941.00;5093401;28;20427;-35
2022/01/01 10:44:17;;;;;;;14.90;10.53;;;;;;;13.60;69.33;96934.91;5093160;28;20553;-37
2022/01/01 10:46:46;;;;;;;24.67;13.30;;;;;;;13.56;69.84;96935.66;5093323;28;20431;-36
2022/01/01 10:49:50;;;;;;;15.80;9.13;;;;;;;13.58;70.24;96930.88;5093617;28;20442;-37
2022/01/01 10:52:21;;;;;;;6.27;4.67;;;;;;;13.57;70.50;96918.59;5093164;28;20546;-35
2022/01/01 10:54:55;;;;;;;8.37;7.23;;;;;;;13.60;70.02;96913.56;5093179;28;20443;-33
2022/01/01 10:57:34;;;;;;;14.80;10.53;;;;;;;13.55;70.09;96915.38;5093106;28;20934;-34
2022/01/01 11:00:21;;;;;;;18.00;10.60;;;;;;;13.62;69.23;96921.31;5093254;28;20482;-35
2022/01/01 11:02:51;;;;;;;25.43;14.53;;;;;;;13.76;69.13;96916.38;5093322;28;20427;-36
2022/01/01 11:05:27;;;;;;;19.40;12.40;;;;;;;13.79;68.84;96922.00;5093212;28;20519;-35
2022/01/01 11:07:55;;;;;;;72.73;42.03;;;;;;;13.80;68.36;96922.81;5093193;28;20466;-35
2022/01/01 11:10:24;;;;;;;115.43;69.63;;;;;;;13.86;68.83;96922.59;5093391;28;20445;-35
2022/01/01 11:12:53;;;;;;;57.07;31.87;;;;;;;13.87;68.89;96937.56;5093384;28;20493;-35
2022/01/01 11:15:21;;;;;;;60.20;33.87;;;;;;;13.86;69.58;96938.59;5093081;28;20439;-36
2022/01/01 11:17:49;;;;;;;38.50;23.27;;;;;;;13.79;69.15;96927.34;5093347;28;20465;-35
2022/01/01 11:20:16;;;;;;;40.90;23.37;;;;;;;13.84;68.44;96932.72;5092842;28;20443;-36
2022/01/01 11:22:44;;;;;;;12.27;9.00;;;;;;;13.83;68.85;96949.81;5092823;28;20453;-36
2022/01/01 11:25:12;;;;;;;22.90;11.87;;;;;;;13.76;68.90;96946.50;5093223;28;20439;-35
2022/01/01 11:27:43;;;;;;;29.17;16.73;;;;;;;13.83;69.94;96955.13;5093364;28;20443;-35
2022/01/01 11:30:13;;;;;;;23.73;15.03;;;;;;;13.83;69.96;96949.81;5093233;28;20446;-38
2022/01/01 11:32:44;;;;;;;14.73;7.67;;;;;;;13.84;69.34;96951.41;5088072;28;20483;-36
2022/01/01 11:35:13;;;;;;;16.03;7.33;;;;;;;13.83;69.63;96960.47;5072308;28;20436;-37
2022/01/01 11:37:56;;;;;;;47.10;27.47;;;;;;;13.81;69.61;96945.75;5088697;28;20925;-38